Time;durP1;ratioP1;P1;durP2;ratioP2;P2;SDS_P1;SDS_P2;PMS_P1;PMS_P2;Temp;Humidity;BMP_temperature;BMP_pressure;BME280_temperature;BME280_humidity;BME280_pressure;Samples;Min_cycle;Max_cycle;Signal;HPM_P1;HPM_P2
2023/03/28 00:01:08;;;;;;;7.82;4.47;;;-0.20;99.90;;;;;;5090469;28;20056;-85
2023/03/28 00:03:38;;;;;;;4.80;3.92;;;-0.20;99.90;;;;;;5065710;28;20044;-84
2023/03/28 00:06:12;;;;;;;7.22;5.07;;;-0.20;99.90;;;;;;5026660;28;20052;-84
2023/03/28 00:08:40;;;;;;;4.80;4.40;;;-0.10;99.90;;;;;;5045109;28;20056;-84
2023/03/28 00:11:18;;;;;;;4.90;4.03;;;-0.10;99.90;;;;;;5032869;28;20052;-84
2023/03/28 00:13:52;;;;;;;8.07;3.92;;;-0.10;99.90;;;;;;5034389;28;20071;-84
2023/03/28 00:16:20;;;;;;;4.80;4.22;;;-0.10;99.90;;;;;;5047550;28;20056;-84
2023/03/28 00:18:49;;;;;;;5.60;3.53;;;0.00;99.90;;;;;;5048846;28;20552;-83
2023/03/28 00:21:22;;;;;;;4.65;4.28;;;-0.10;99.90;;;;;;5047587;28;20052;-83
2023/03/28 00:23:56;;;;;;;8.85;5.63;;;-0.10;99.90;;;;;;5045412;28;20859;-84
2023/03/28 00:26:25;;;;;;;8.18;6.28;;;-0.10;99.90;;;;;;5030760;28;20059;-84
2023/03/28 00:28:55;;;;;;;4.90;4.45;;;0.00;99.90;;;;;;5064664;28;20052;-84
2023/03/28 00:31:25;;;;;;;7.07;4.18;;;0.00;99.90;;;;;;5036273;28;20385;-85
2023/03/28 00:33:54;;;;;;;4.68;4.00;;;0.00;99.90;;;;;;5060266;28;20051;-83
2023/03/28 00:36:28;;;;;;;6.22;4.35;;;0.00;99.90;;;;;;5025576;28;20525;-83
2023/03/28 00:38:56;;;;;;;5.05;4.55;;;0.00;99.90;;;;;;5044705;28;20591;-85
2023/03/28 00:41:29;;;;;;;5.15;4.45;;;0.00;99.90;;;;;;5060163;28;20057;-85
2023/03/28 00:44:21;;;;;;;6.80;4.18;;;0.00;99.90;;;;;;5052977;28;20055;-84
2023/03/28 00:46:49;;;;;;;5.32;4.68;;;0.00;99.90;;;;;;5015081;28;20057;-85
2023/03/28 00:49:23;;;;;;;6.05;4.78;;;-0.10;99.90;;;;;;5054879;28;20053;-84
2023/03/28 00:51:59;;;;;;;4.85;4.45;;;-0.10;99.90;;;;;;5034032;28;20051;-84
2023/03/28 00:54:52;;;;;;;5.38;4.95;;;-0.10;99.90;;;;;;5052276;28;20060;-84
2023/03/28 00:57:37;;;;;;;5.07;4.60;;;-0.10;99.90;;;;;;5031597;28;20488;-85
2023/03/28 01:00:11;;;;;;;4.57;4.10;;;0.00;99.90;;;;;;5061941;28;20064;-85
2023/03/28 01:02:49;;;;;;;6.32;4.72;;;-0.10;99.90;;;;;;5060114;28;20041;-86
2023/03/28 01:05:23;;;;;;;5.57;4.72;;;-0.10;99.90;;;;;;5048648;28;20421;-85
2023/03/28 01:07:57;;;;;;;4.30;3.97;;;-0.10;99.90;;;;;;5035101;28;20041;-83
2023/03/28 01:10:25;;;;;;;5.13;4.63;;;0.00;99.90;;;;;;5032555;28;20056;-84
2023/03/28 01:12:55;;;;;;;9.32;5.32;;;0.00;99.90;;;;;;5063596;28;20067;-84
2023/03/28 01:15:22;;;;;;;6.18;4.05;;;0.00;99.90;;;;;;5046804;28;20049;-85
2023/03/28 01:18:01;;;;;;;5.25;4.68;;;0.00;99.90;;;;;;5033392;28;20044;-84
2023/03/28 01:20:53;;;;;;;7.95;4.65;;;0.00;99.90;;;;;;5060673;28;20052;-83
2023/03/28 01:23:44;;;;;;;5.15;3.90;;;0.10;99.90;;;;;;5058655;28;20084;-85
2023/03/28 01:26:33;;;;;;;9.38;5.93;;;0.00;99.90;;;;;;5053524;28;20053;-86
2023/03/28 01:29:17;;;;;;;5.32;4.70;;;0.00;99.90;;;;;;5045612;28;20530;-84
2023/03/28 01:32:31;;;;;;;5.13;4.60;;;0.00;99.90;;;;;;5029762;28;20560;-85
2023/03/28 01:35:37;;;;;;;9.02;4.35;;;0.00;99.90;;;;;;5051278;28;20044;-84
2023/03/28 01:38:26;;;;;;;7.78;4.22;;;0.00;99.90;;;;;;5029639;28;20048;-84
2023/03/28 01:41:20;;;;;;;7.88;4.93;;;0.00;99.90;;;;;;5065560;28;20501;-84
2023/03/28 01:44:24;;;;;;;6.22;4.78;;;0.00;99.90;;;;;;5031705;28;20051;-85
2023/03/28 01:47:19;;;;;;;9.27;5.32;;;0.00;99.90;;;;;;4987065;28;20040;-83
2023/03/28 01:50:00;;;;;;;8.68;6.47;;;-0.10;99.90;;;;;;5058578;28;20053;-84
2023/03/28 01:52:53;;;;;;;4.83;4.43;;;-0.10;99.90;;;;;;5029933;28;20052;-82
2023/03/28 01:55:30;;;;;;;9.25;5.03;;;-0.20;99.90;;;;;;5034259;28;20044;-85
2023/03/28 01:58:27;;;;;;;7.10;4.43;;;-0.30;99.90;;;;;;5031647;28;20045;-84
2023/03/28 02:01:21;;;;;;;6.45;4.18;;;-0.20;99.90;;;;;;5044401;28;20052;-84
2023/03/28 02:03:54;;;;;;;7.38;4.45;;;-0.30;99.90;;;;;;5000206;28;20052;-83
2023/03/28 02:06:38;;;;;;;5.85;5.35;;;-0.30;99.90;;;;;;5015526;28;20045;-86
2023/03/28 02:09:14;;;;;;;4.38;3.90;;;-0.30;99.90;;;;;;5033976;28;20049;-85
2023/03/28 02:12:09;;;;;;;5.78;5.28;;;-0.30;99.90;;;;;;5024317;28;20053;-84
2023/03/28 02:15:04;;;;;;;5.47;4.97;;;-0.40;99.90;;;;;;5016905;28;20476;-83
2023/03/28 02:17:58;;;;;;;5.65;5.15;;;-0.40;99.90;;;;;;5023531;28;20049;-83
2023/03/28 02:20:57;;;;;;;6.22;4.72;;;-0.30;99.90;;;;;;5032936;28;20564;-83
2023/03/28 02:23:46;;;;;;;5.85;5.35;;;-0.50;99.90;;;;;;5043557;28;20417;-83
2023/03/28 02:26:43;;;;;;;6.28;5.70;;;-0.50;99.90;;;;;;5020525;28;20584;-83
2023/03/28 02:29:38;;;;;;;6.28;5.47;;;-0.50;99.90;;;;;;5010002;28;20069;-83
2023/03/28 02:32:34;;;;;;;9.48;7.80;;;-0.50;99.90;;;;;;5027141;28;20794;-84
2023/03/28 02:35:04;;;;;;;8.60;5.43;;;-0.50;99.90;;;;;;5036618;28;20053;-83
2023/03/28 02:37:55;;;;;;;7.95;6.55;;;-0.40;99.90;;;;;;5003830;28;20061;-83
2023/03/28 02:40:49;;;;;;;5.97;5.45;;;-0.40;99.90;;;;;;5049658;28;20781;-84
2023/03/28 02:43:41;;;;;;;8.43;6.57;;;-0.30;99.90;;;;;;5026608;28;20045;-84
2023/03/28 02:46:20;;;;;;;;;;;-0.30;99.90;;;;;;5028348;28;20403;-84
2023/03/28 02:48:53;;;;;;;7.40;6.72;;;-0.30;99.90;;;;;;5028862;28;19951;-84
2023/03/28 02:51:33;;;;;;;11.07;7.30;;;-0.20;99.90;;;;;;5018635;28;20049;-85
2023/03/28 02:54:35;;;;;;;5.90;5.40;;;-0.20;99.90;;;;;;5027405;28;20052;-83
2023/03/28 02:57:40;;;;;;;11.68;8.48;;;-0.20;99.90;;;;;;4986172;28;20482;-89
2023/03/28 03:00:10;;;;;;;11.23;8.13;;;-0.20;99.90;;;;;;5002442;28;20057;-84
2023/03/28 03:02:41;;;;;;;7.25;6.55;;;-0.20;99.90;;;;;;5026319;28;20440;-84
2023/03/28 03:05:09;;;;;;;8.65;7.28;;;-0.10;99.90;;;;;;5010310;28;20048;-84
2023/03/28 03:07:37;;;;;;;9.10;7.40;;;-0.20;99.90;;;;;;4997838;28;20056;-87
2023/03/28 03:10:08;;;;;;;6.95;6.25;;;-0.20;99.90;;;;;;5027156;28;20061;-84
2023/03/28 03:12:36;;;;;;;;;;;-0.20;99.90;;;;;;5020473;28;20052;-84
2023/03/28 03:15:06;;;;;;;8.32;6.90;;;-0.20;99.90;;;;;;5027704;28;20266;-84
2023/03/28 03:17:49;;;;;;;7.78;6.95;;;-0.20;99.90;;;;;;5034498;28;20492;-86
2023/03/28 03:20:32;;;;;;;9.55;8.50;;;-0.20;99.90;;;;;;5001881;28;20060;-84
2023/03/28 03:23:02;;;;;;;10.65;8.13;;;-0.10;99.90;;;;;;5047013;28;20051;-85
2023/03/28 03:25:33;;;;;;;10.13;7.90;;;-0.10;99.90;;;;;;5036687;28;20049;-83
2023/03/28 03:28:27;;;;;;;9.52;6.90;;;-0.20;99.90;;;;;;5030037;28;20044;-83
2023/03/28 03:30:55;;;;;;;8.20;7.03;;;-0.20;99.90;;;;;;5036490;28;20045;-84
2023/03/28 03:33:36;;;;;;;9.95;7.22;;;-0.20;99.90;;;;;;5045563;28;20057;-84
2023/03/28 03:36:07;;;;;;;11.65;7.80;;;-0.20;99.90;;;;;;5028581;28;20049;-85
2023/03/28 03:38:35;;;;;;;11.40;8.20;;;-0.20;99.90;;;;;;5010789;28;20056;-84
2023/03/28 03:41:03;;;;;;;10.90;8.18;;;-0.30;99.90;;;;;;5002194;28;20068;-83
2023/03/28 03:43:33;;;;;;;12.68;7.78;;;-0.20;99.90;;;;;;5015798;28;20072;-86
2023/03/28 03:46:01;;;;;;;12.88;8.90;;;-0.30;99.90;;;;;;5020102;28;20037;-83
2023/03/28 03:48:30;;;;;;;12.93;7.00;;;-0.30;99.90;;;;;;5036727;28;20049;-84
2023/03/28 03:51:00;;;;;;;15.60;9.52;;;-0.30;99.90;;;;;;5023958;28;20052;-84
2023/03/28 03:53:28;;;;;;;9.73;8.50;;;-0.30;99.90;;;;;;5056566;28;20068;-86
2023/03/28 03:56:05;;;;;;;8.40;6.32;;;-0.30;99.90;;;;;;5023495;28;20049;-85
2023/03/28 03:58:59;;;;;;;13.60;8.00;;;-0.30;99.90;;;;;;5073176;28;20051;-84
2023/03/28 04:01:32;;;;;;;8.60;7.38;;;-0.30;99.90;;;;;;5048666;28;20059;-84
2023/03/28 04:05:30;;;;;;;7.65;6.95;;;-0.30;99.90;;;;;;5086689;28;20064;-86
2023/03/28 04:08:06;;;;;;;14.70;8.70;;;-0.30;99.90;;;;;;5029143;28;20052;-84
2023/03/28 04:10:37;;;;;;;8.52;7.03;;;-0.30;99.90;;;;;;5050793;28;20439;-84
2023/03/28 04:13:05;;;;;;;16.60;7.30;;;-0.40;99.90;;;;;;5055777;28;20059;-84
2023/03/28 04:15:35;;;;;;;12.10;9.90;;;-0.40;99.90;;;;;;5037455;28;20408;-84
2023/03/28 04:18:22;;;;;;;10.35;7.32;;;-0.40;99.90;;;;;;5051030;28;20037;-83
2023/03/28 04:20:54;;;;;;;9.73;7.82;;;-0.40;99.90;;;;;;5037543;28;20056;-86
2023/03/28 04:23:42;;;;;;;13.02;9.13;;;-0.40;99.90;;;;;;5061045;28;20047;-86
2023/03/28 04:26:38;;;;;;;8.77;6.75;;;-0.40;99.90;;;;;;5053548;28;20052;-84
2023/03/28 04:29:11;;;;;;;14.15;7.22;;;-0.40;99.90;;;;;;5072729;28;20040;-84
2023/03/28 04:31:48;;;;;;;10.23;6.85;;;-0.50;99.90;;;;;;5059814;28;20040;-84
2023/03/28 04:34:36;;;;;;;12.20;7.47;;;-0.50;99.90;;;;;;5091613;28;20045;-84
2023/03/28 04:37:14;;;;;;;11.15;9.55;;;-0.50;99.90;;;;;;5060562;28;20048;-87
2023/03/28 04:39:52;;;;;;;9.90;7.03;;;-0.50;99.90;;;;;;5060306;28;20045;-85
2023/03/28 04:42:40;;;;;;;10.60;7.25;;;-0.50;99.90;;;;;;5091214;28;20047;-86
2023/03/28 04:45:10;;;;;;;15.23;7.78;;;-0.50;99.90;;;;;;5081313;28;20028;-85
2023/03/28 04:47:40;;;;;;;10.98;7.65;;;-0.50;99.90;;;;;;5058370;28;20456;-85
2023/03/28 04:50:16;;;;;;;8.18;6.20;;;-0.60;99.90;;;;;;5094712;28;20044;-84
2023/03/28 04:52:44;;;;;;;11.10;8.35;;;-0.50;99.90;;;;;;5080276;28;20040;-85
2023/03/28 04:55:14;;;;;;;10.15;8.25;;;-0.60;99.90;;;;;;5063278;28;20048;-88
2023/03/28 04:57:43;;;;;;;12.13;7.80;;;-0.60;99.90;;;;;;5076306;28;20032;-85
2023/03/28 05:00:15;;;;;;;12.25;8.50;;;-0.60;99.90;;;;;;5051032;28;20049;-85
2023/03/28 05:03:00;;;;;;;11.52;7.53;;;-0.60;99.90;;;;;;5050105;28;20036;-86
2023/03/28 05:05:33;;;;;;;9.18;8.25;;;-0.60;99.90;;;;;;5061908;28;20066;-85
2023/03/28 05:08:02;;;;;;;11.82;7.07;;;-0.60;99.90;;;;;;5041673;28;20056;-86
2023/03/28 05:10:30;;;;;;;9.80;7.28;;;-0.60;99.90;;;;;;5022079;28;20425;-85
2023/03/28 05:13:05;;;;;;;12.52;7.97;;;-0.60;99.90;;;;;;5052491;28;20128;-86
2023/03/28 05:15:41;;;;;;;12.82;8.07;;;-0.60;99.90;;;;;;5007351;28;20881;-85
2023/03/28 05:18:37;;;;;;;8.57;7.15;;;-0.60;99.90;;;;;;5049955;28;20045;-85
2023/03/28 05:21:06;;;;;;;9.00;7.05;;;-0.60;99.90;;;;;;5047810;28;20055;-90
2023/03/28 05:23:35;;;;;;;13.75;8.43;;;-0.60;99.90;;;;;;4994378;28;20053;-88
2023/03/28 05:26:10;;;;;;;9.32;8.15;;;-0.60;99.90;;;;;;5051971;28;20219;-88
2023/03/28 05:28:39;;;;;;;11.80;7.82;;;-0.60;99.90;;;;;;5030260;28;20062;-84
2023/03/28 05:31:07;;;;;;;11.45;7.28;;;-0.60;99.90;;;;;;5047183;28;20045;-84
2023/03/28 05:33:35;;;;;;;8.57;7.53;;;-0.60;99.90;;;;;;5050004;28;20055;-86
2023/03/28 05:36:04;;;;;;;12.98;7.53;;;-0.60;99.90;;;;;;5066177;28;20052;-86
2023/03/28 05:38:32;;;;;;;13.80;9.23;;;-0.60;99.90;;;;;;5013740;28;20059;-87
2023/03/28 05:41:07;;;;;;;9.23;8.25;;;-0.60;99.90;;;;;;5044573;28;20648;-86
2023/03/28 05:43:35;;;;;;;20.85;7.22;;;-0.50;99.90;;;;;;5040267;28;20048;-84
2023/03/28 05:46:03;;;;;;;15.35;7.88;;;-0.50;99.90;;;;;;5035640;28;20044;-85
2023/03/28 05:48:40;;;;;;;10.48;8.07;;;-0.50;99.90;;;;;;5062313;28;20412;-86
2023/03/28 05:51:08;;;;;;;9.32;7.65;;;-0.50;99.90;;;;;;5045123;28;20049;-89
2023/03/28 05:53:35;;;;;;;12.02;8.93;;;-0.50;99.90;;;;;;5047650;28;20061;-86
2023/03/28 05:56:05;;;;;;;7.78;6.60;;;-0.30;99.90;;;;;;5052926;28;20052;-91
2023/03/28 05:58:33;;;;;;;10.38;7.25;;;-0.40;99.90;;;;;;5052496;28;20057;-85
2023/03/28 06:01:03;;;;;;;9.93;8.88;;;-0.40;99.90;;;;;;5046842;28;20056;-86
2023/03/28 06:03:31;;;;;;;8.45;7.65;;;-0.40;99.90;;;;;;5068247;28;20045;-87
2023/03/28 06:06:06;;;;;;;13.70;7.32;;;-0.30;99.90;;;;;;5040275;28;20075;-86
2023/03/28 06:08:34;;;;;;;11.45;8.43;;;-0.30;99.90;;;;;;5033568;28;20048;-85
2023/03/28 06:11:02;;;;;;;8.55;6.95;;;-0.30;99.90;;;;;;5034420;28;20873;-86
2023/03/28 06:13:55;;;;;;;12.70;9.50;;;-0.30;99.90;;;;;;5033726;28;20048;-89
2023/03/28 06:16:23;;;;;;;11.05;6.05;;;-0.30;99.90;;;;;;5051428;28;20052;-88
2023/03/28 06:18:59;;;;;;;15.10;9.07;;;-0.30;99.90;;;;;;5050776;28;20798;-86
2023/03/28 06:21:51;;;;;;;11.68;7.30;;;-0.20;99.90;;;;;;5031089;28;20857;-88
2023/03/28 06:24:20;;;;;;;9.60;8.70;;;-0.20;99.90;;;;;;5055030;28;20064;-88
2023/03/28 06:26:48;;;;;;;7.97;5.88;;;-0.10;99.90;;;;;;5034866;28;20057;-88
2023/03/28 06:29:20;;;;;;;10.53;8.03;;;0.20;99.90;;;;;;5050073;28;20056;-90
2023/03/28 06:32:00;;;;;;;16.27;7.50;;;0.10;99.90;;;;;;5015173;28;20053;-89
2023/03/28 06:34:28;;;;;;;10.90;8.60;;;-0.10;99.90;;;;;;5005952;28;20057;-88
2023/03/28 06:37:00;;;;;;;14.43;8.23;;;0.10;99.90;;;;;;5003626;28;20414;-89
2023/03/28 06:40:00;;;;;;;13.32;6.55;;;0.10;99.90;;;;;;5010769;28;20045;-88
2023/03/28 06:42:30;;;;;;;5.95;4.97;;;0.00;99.90;;;;;;5020197;28;20472;-89
2023/03/28 06:45:13;;;;;;;7.22;6.53;;;0.50;99.90;;;;;;5004949;28;20050;-89
2023/03/28 06:48:01;;;;;;;11.77;8.73;;;0.90;99.90;;;;;;4993784;28;20053;-91
2023/03/28 06:51:05;;;;;;;12.45;7.18;;;0.60;99.90;;;;;;4983855;28;20049;-87
2023/03/28 06:53:36;;;;;;;7.78;6.57;;;1.30;99.90;;;;;;4973784;28;20407;-91
2023/03/28 06:56:05;;;;;;;7.20;6.55;;;1.80;99.90;;;;;;5007316;28;20066;-89
2023/03/28 06:58:33;;;;;;;13.40;7.28;;;1.20;99.90;;;;;;4989051;28;20054;-93
2023/03/28 07:01:09;;;;;;;6.97;5.72;;;1.80;99.90;;;;;;4985253;28;20524;-91
2023/03/28 07:04:12;;;;;;;6.97;4.20;;;2.30;99.90;;;;;;5011334;28;20044;-90
2023/03/28 07:06:41;;;;;;;8.20;7.25;;;2.20;99.90;;;;;;5034315;28;20898;-89
2023/03/28 07:09:09;;;;;;;10.82;6.05;;;0.90;99.90;;;;;;5011726;28;20800;-92
2023/03/28 07:11:41;;;;;;;11.77;6.60;;;0.70;99.90;;;;;;5032015;28;20056;-88
2023/03/28 07:14:09;;;;;;;5.00;4.30;;;0.80;99.90;;;;;;5034773;28;20086;-88
2023/03/28 07:16:37;;;;;;;10.93;8.48;;;1.00;99.90;;;;;;5034959;28;20061;-89
2023/03/28 07:19:05;;;;;;;5.18;4.68;;;1.60;99.90;;;;;;5021522;28;20765;-89
2023/03/28 07:21:36;;;;;;;6.53;5.05;;;1.60;99.90;;;;;;5020869;28;20829;-90
2023/03/28 07:24:05;;;;;;;8.27;4.25;;;1.70;99.90;;;;;;5019008;28;20052;-87
2023/03/28 07:26:55;;;;;;;7.65;4.30;;;1.00;99.90;;;;;;5047576;28;20491;-87
2023/03/28 07:29:49;;;;;;;6.57;5.15;;;1.90;99.90;;;;;;5017177;28;20052;-88
2023/03/28 07:32:18;;;;;;;6.78;5.22;;;1.40;99.90;;;;;;5034249;28;20071;-88
2023/03/28 07:34:52;;;;;;;5.80;5.30;;;1.30;99.90;;;;;;5039288;28;20048;-91
2023/03/28 07:37:24;;;;;;;9.38;5.55;;;2.40;99.90;;;;;;5022682;28;20699;-90
2023/03/28 07:40:06;;;;;;;6.50;4.68;;;3.00;99.90;;;;;;4999856;28;20052;-92
2023/03/28 07:42:34;;;;;;;14.65;5.00;;;2.30;99.90;;;;;;5016416;28;20060;-93
2023/03/28 07:45:02;;;;;;;10.88;4.38;;;1.90;99.90;;;;;;5036782;28;20056;-89
2023/03/28 07:47:30;;;;;;;4.70;4.28;;;2.20;99.90;;;;;;5004687;28;20062;-86
2023/03/28 07:49:58;;;;;;;12.07;5.32;;;2.30;99.90;;;;;;5054207;28;20048;-91
2023/03/28 07:52:27;;;;;;;4.70;3.92;;;2.70;99.90;;;;;;5013578;28;20071;-88
2023/03/28 07:54:55;;;;;;;11.73;3.53;;;3.00;99.90;;;;;;5035471;28;20504;-90
2023/03/28 07:57:23;;;;;;;8.52;3.83;;;2.70;99.90;;;;;;5020335;28;20060;-89
2023/03/28 07:59:55;;;;;;;11.52;4.72;;;2.10;99.90;;;;;;5032669;28;20057;-90
2023/03/28 08:02:24;;;;;;;4.43;3.40;;;2.50;99.90;;;;;;5030007;28;20067;-90
2023/03/28 08:04:53;;;;;;;5.75;3.45;;;1.80;99.90;;;;;;5062148;28;20048;-92
2023/03/28 08:07:25;;;;;;;9.02;4.78;;;2.40;99.90;;;;;;5036277;28;20060;-89
2023/03/28 08:09:55;;;;;;;5.68;3.22;;;2.90;99.90;;;;;;5017689;28;20045;-92
2023/03/28 08:12:29;;;;;;;4.60;2.85;;;3.10;99.90;;;;;;5001870;28;20555;-92
2023/03/28 08:14:58;;;;;;;3.78;3.47;;;2.30;99.90;;;;;;5049504;28;20052;-89
2023/03/28 08:17:29;;;;;;;3.58;3.22;;;2.10;99.90;;;;;;5019500;28;20064;-88
2023/03/28 08:19:57;;;;;;;4.65;4.20;;;2.00;99.90;;;;;;5054753;28;20063;-92
2023/03/28 08:22:40;;;;;;;6.82;3.58;;;1.80;99.90;;;;;;5051387;28;20048;-90
2023/03/28 08:25:31;;;;;;;6.30;3.72;;;1.40;99.90;;;;;;5020973;28;20060;-90
2023/03/28 08:28:02;;;;;;;5.90;4.00;;;1.30;99.90;;;;;;5033102;28;20848;-91
2023/03/28 08:30:34;;;;;;;;;;;1.60;99.90;;;;;;5014558;28;20493;-92
2023/03/28 08:33:03;;;;;;;4.15;3.05;;;2.20;99.90;;;;;;5009716;28;20377;-90
2023/03/28 08:35:37;;;;;;;2.72;2.47;;;2.30;99.90;;;;;;5018213;28;20037;-92
2023/03/28 08:38:14;;;;;;;5.65;3.15;;;2.30;99.90;;;;;;5016848;28;20041;-90
2023/03/28 08:41:10;;;;;;;5.68;3.38;;;1.70;99.90;;;;;;5033693;28;20049;-92
2023/03/28 08:44:12;;;;;;;4.40;4.00;;;1.60;99.90;;;;;;4991751;28;20253;-92
2023/03/28 08:46:43;;;;;;;3.58;2.80;;;2.30;99.90;;;;;;5025769;28;20303;-90
2023/03/28 08:49:17;;;;;;;4.50;3.72;;;2.60;99.90;;;;;;5041655;28;20064;-91
2023/03/28 08:51:49;;;;;;;16.52;5.75;;;4.10;99.90;;;;;;5046935;28;20071;-87
2023/03/28 08:54:39;;;;;;;6.03;3.20;;;5.30;99.90;;;;;;5055144;28;20048;-89
2023/03/28 08:57:16;;;;;;;4.05;2.78;;;3.70;99.90;;;;;;5036396;28;20058;-90
2023/03/28 08:59:47;;;;;;;6.85;2.58;;;3.10;99.90;;;;;;5041964;28;20040;-88
2023/03/28 09:02:20;;;;;;;7.55;3.42;;;2.40;99.90;;;;;;5042251;28;20052;-88
2023/03/28 09:04:53;;;;;;;4.78;2.85;;;2.50;99.90;;;;;;5054799;28;20062;-91
2023/03/28 09:07:45;;;;;;;6.05;2.90;;;2.30;99.90;;;;;;5026248;28;20500;-90
2023/03/28 09:10:43;;;;;;;5.05;3.05;;;2.20;99.90;;;;;;5051263;28;20066;-91
2023/03/28 09:13:24;;;;;;;3.90;3.03;;;2.60;99.90;;;;;;5072335;28;20061;-91
2023/03/28 09:16:24;;;;;;;4.05;3.33;;;2.40;99.90;;;;;;5026317;28;20045;-91
2023/03/28 09:19:29;;;;;;;2.45;2.25;;;2.20;99.90;;;;;;5046965;28;20053;-90
2023/03/28 09:23:11;;;;;;;1.80;1.70;;;2.20;99.90;;;;;;5052694;28;20048;-91
2023/03/28 09:26:16;;;;;;;4.53;2.42;;;3.50;99.90;;;;;;5044979;28;20059;-89
2023/03/28 09:29:05;;;;;;;3.88;2.30;;;4.10;99.90;;;;;;5042039;28;20048;-91
2023/03/28 09:31:42;;;;;;;1.55;1.45;;;3.40;99.90;;;;;;5062570;28;20040;-92
2023/03/28 09:34:33;;;;;;;3.05;2.80;;;3.10;99.90;;;;;;5058480;28;20332;-91
2023/03/28 09:37:31;;;;;;;5.35;2.35;;;2.90;99.90;;;;;;5073166;28;20056;-91
2023/03/28 09:40:22;;;;;;;4.32;2.55;;;2.90;99.90;;;;;;5084182;28;20063;-88
2023/03/28 09:43:41;;;;;;;3.20;2.83;;;2.60;99.90;;;;;;5077725;28;20045;-90
2023/03/28 09:46:39;;;;;;;2.60;2.35;;;2.50;99.90;;;;;;5067701;28;20063;-91
2023/03/28 09:49:26;;;;;;;3.20;2.80;;;2.40;99.90;;;;;;5077776;28;20048;-90
2023/03/28 09:52:20;;;;;;;4.72;2.50;;;2.50;99.90;;;;;;5025706;28;20044;-89
2023/03/28 09:54:50;;;;;;;1.58;1.48;;;3.20;99.90;;;;;;5032572;28;20067;-88
2023/03/28 09:57:20;;;;;;;1.67;1.58;;;3.40;99.90;;;;;;5040431;28;20048;-91
2023/03/28 09:59:57;;;;;;;1.80;1.58;;;3.00;99.90;;;;;;5044755;28;20052;-90
2023/03/28 10:02:33;;;;;;;4.13;2.70;;;2.80;99.90;;;;;;5034097;28;20919;-89
2023/03/28 10:05:34;;;;;;;3.55;2.42;;;2.80;99.90;;;;;;5045602;28;20057;-89
2023/03/28 10:08:38;;;;;;;2.05;1.85;;;2.50;99.90;;;;;;4956176;28;20233;-91
2023/03/28 10:11:18;;;;;;;2.47;2.15;;;2.70;99.90;;;;;;4985111;28;20063;-90
2023/03/28 10:13:52;;;;;;;2.97;2.63;;;2.70;99.90;;;;;;4950239;28;20054;-89
2023/03/28 10:16:29;;;;;;;2.88;2.67;;;2.60;99.90;;;;;;4970966;28;20326;-91
2023/03/28 10:19:01;;;;;;;2.63;2.43;;;2.50;99.90;;;;;;4962788;28;20608;-89
2023/03/28 10:21:39;;;;;;;2.05;1.95;;;2.60;99.90;;;;;;4982203;28;20061;-90
2023/03/28 10:24:16;;;;;;;2.25;2.13;;;2.60;99.90;;;;;;4956308;28;20073;-87
2023/03/28 10:26:57;;;;;;;3.35;2.38;;;2.80;99.90;;;;;;4982990;28;20050;-88
2023/03/28 10:29:27;;;;;;;3.17;2.03;;;2.80;99.90;;;;;;4952651;28;20053;-89
2023/03/28 10:31:55;;;;;;;7.60;1.88;;;2.80;99.90;;;;;;4953297;28;20896;-92
2023/03/28 10:34:30;;;;;;;5.63;2.65;;;2.80;99.90;;;;;;4952787;28;20050;-87
2023/03/28 10:37:23;;;;;;;2.58;2.38;;;2.70;99.90;;;;;;4948254;28;20058;-92
2023/03/28 10:40:28;;;;;;;6.53;2.25;;;2.70;99.90;;;;;;4979652;28;20067;-90
2023/03/28 10:43:37;;;;;;;2.90;2.60;;;3.00;99.90;;;;;;5004768;28;20685;-89
2023/03/28 10:46:31;;;;;;;2.75;2.55;;;3.50;99.90;;;;;;5003729;28;20045;-91
2023/03/28 10:49:17;;;;;;;2.17;2.05;;;3.30;99.90;;;;;;5009919;28;20871;-90
2023/03/28 10:51:55;;;;;;;5.20;1.95;;;3.60;99.90;;;;;;5011810;28;20045;-90
2023/03/28 10:54:53;;;;;;;3.90;2.42;;;4.00;99.90;;;;;;5025740;28;20057;-90
2023/03/28 10:58:05;;;;;;;4.25;2.08;;;3.90;99.90;;;;;;5014363;28;20052;-83
2023/03/28 11:00:47;;;;;;;1.88;1.77;;;3.60;99.90;;;;;;5007411;28;21289;-90
2023/03/28 11:03:57;;;;;;;1.63;1.52;;;3.60;99.90;;;;;;5024720;28;20532;-91
2023/03/28 11:06:56;;;;;;;2.83;2.63;;;3.70;99.90;;;;;;5021166;28;20045;-90
2023/03/28 11:10:05;;;;;;;3.03;1.95;;;3.50;99.90;;;;;;5029485;28;20044;-90
2023/03/28 11:13:11;;;;;;;5.88;2.53;;;3.60;99.90;;;;;;5018878;28;20063;-90
2023/03/28 11:16:24;;;;;;;2.63;2.42;;;3.50;99.90;;;;;;5015339;28;20052;-89
2023/03/28 11:19:32;;;;;;;9.45;2.92;;;3.50;99.90;;;;;;4980847;28;20081;-87
2023/03/28 11:22:39;;;;;;;2.78;2.42;;;3.50;99.90;;;;;;4968452;28;20073;-88
2023/03/28 11:25:32;;;;;;;1.80;1.70;;;3.50;99.90;;;;;;5007045;28;20079;-89
2023/03/28 11:28:24;;;;;;;9.65;2.35;;;3.70;99.90;;;;;;5031006;28;20075;-89
2023/03/28 11:30:59;;;;;;;3.17;2.45;;;3.70;99.90;;;;;;4999326;28;20049;-90
2023/03/28 11:33:49;;;;;;;4.25;2.45;;;4.10;99.90;;;;;;5004215;28;20072;-90
2023/03/28 11:36:46;;;;;;;2.35;1.92;;;4.30;99.90;;;;;;5026978;28;20601;-89
2023/03/28 11:39:20;;;;;;;5.10;2.25;;;4.50;99.90;;;;;;4990719;28;20045;-90
2023/03/28 11:41:51;;;;;;;2.78;1.98;;;4.60;99.90;;;;;;5008913;28;20337;-90
2023/03/28 11:44:47;;;;;;;2.92;2.70;;;4.60;99.90;;;;;;5024932;28;20055;-91
2023/03/28 11:47:24;;;;;;;2.70;2.30;;;4.30;99.90;;;;;;5031833;28;20045;-91
2023/03/28 11:50:07;;;;;;;3.63;3.42;;;4.20;99.90;;;;;;5008015;28;20056;-88
2023/03/28 11:53:01;;;;;;;8.93;3.15;;;4.30;99.90;;;;;;5039759;28;20063;-85
2023/03/28 11:55:40;;;;;;;2.63;2.43;;;4.50;99.90;;;;;;5021126;28;20495;-86
2023/03/28 11:58:21;;;;;;;3.42;2.95;;;4.30;99.20;;;;;;5054713;28;21099;-84
2023/03/28 12:01:07;;;;;;;3.47;2.70;;;4.50;99.90;;;;;;5041421;28;20056;-87
2023/03/28 12:04:17;;;;;;;4.45;2.35;;;4.90;97.90;;;;;;5039180;28;20052;-89
2023/03/28 12:07:14;;;;;;;1.88;1.77;;;5.20;91.10;;;;;;5024327;28;20044;-89
2023/03/28 12:09:58;;;;;;;2.33;2.10;;;5.20;99.30;;;;;;5059067;28;20057;-89
2023/03/28 12:12:54;;;;;;;5.97;3.05;;;5.40;99.90;;;;;;5041653;28;20801;-90
2023/03/28 12:15:42;;;;;;;10.52;1.83;;;5.60;96.70;;;;;;5043063;28;20057;-89
2023/03/28 12:18:35;;;;;;;1.88;1.77;;;5.10;99.90;;;;;;5021663;28;20040;-87
2023/03/28 12:21:27;;;;;;;1.73;1.63;;;4.40;98.70;;;;;;5046948;28;20076;-87
2023/03/28 12:24:04;;;;;;;2.08;1.98;;;4.10;98.10;;;;;;5039262;28;20052;-89
2023/03/28 12:27:02;;;;;;;2.33;2.15;;;4.00;97.70;;;;;;5026251;28;20040;-90
2023/03/28 12:29:59;;;;;;;5.55;3.15;;;4.40;96.30;;;;;;5025398;28;20052;-88
2023/03/28 12:32:45;;;;;;;2.95;2.33;;;4.60;95.40;;;;;;5043387;28;20056;-88
2023/03/28 12:35:32;;;;;;;2.88;2.67;;;5.20;99.90;;;;;;5024279;28;20056;-88
2023/03/28 12:38:28;;;;;;;3.55;2.58;;;5.30;95.40;;;;;;5062267;28;20507;-90
2023/03/28 12:41:15;;;;;;;3.42;2.58;;;5.50;99.90;;;;;;5045097;28;20064;-90
2023/03/28 12:43:57;;;;;;;3.83;2.85;;;5.30;93.10;;;;;;5033542;28;20045;-90
2023/03/28 12:46:50;;;;;;;3.13;2.80;;;5.20;96.70;;;;;;5029534;28;20048;-89
2023/03/28 12:49:35;;;;;;;3.63;1.80;;;4.70;94.30;;;;;;5021893;28;20068;-90
2023/03/28 12:52:22;;;;;;;7.03;3.28;;;4.80;97.80;;;;;;5011485;28;20045;-87
2023/03/28 12:55:03;;;;;;;2.30;2.20;;;5.00;99.90;;;;;;5019453;28;20761;-88
2023/03/28 12:57:39;;;;;;;5.28;2.95;;;5.20;96.00;;;;;;5027164;28;20045;-89
2023/03/28 13:00:28;;;;;;;3.55;3.25;;;5.60;99.90;;;;;;5027411;28;20053;-89
2023/03/28 13:03:31;;;;;;;4.63;2.58;;;5.40;93.30;;;;;;5018451;28;20619;-86
2023/03/28 13:06:14;;;;;;;2.90;2.28;;;5.30;99.20;;;;;;5005246;28;20049;-89
2023/03/28 13:09:00;;;;;;;8.70;3.03;;;5.30;98.80;;;;;;5010143;28;20049;-88
2023/03/28 13:11:50;;;;;;;3.67;3.40;;;5.40;97.10;;;;;;5036563;28;20040;-89
2023/03/28 13:14:37;;;;;;;3.53;3.20;;;5.30;93.20;;;;;;5013658;28;20054;-88
2023/03/28 13:17:22;;;;;;;5.70;2.92;;;5.70;99.20;;;;;;5031150;28;20787;-86
2023/03/28 13:20:09;;;;;;;4.20;2.95;;;6.00;99.90;;;;;;5037340;28;20045;-89
2023/03/28 13:22:52;;;;;;;3.75;2.63;;;5.90;94.50;;;;;;4998169;28;20048;-89
2023/03/28 13:25:25;;;;;;;4.30;3.05;;;5.50;99.20;;;;;;5017013;28;20445;-87
2023/03/28 13:28:00;;;;;;;3.63;3.13;;;5.70;98.90;;;;;;5032732;28;20772;-87
2023/03/28 13:30:31;;;;;;;5.55;2.83;;;6.00;97.00;;;;;;5028718;28;20041;-86
2023/03/28 13:33:02;;;;;;;;;;;5.90;95.10;;;;;;5013090;28;20064;-86
2023/03/28 13:35:47;;;;;;;3.15;2.95;;;6.00;97.20;;;;;;4999400;28;19936;-86
2023/03/28 13:38:27;;;;;;;2.85;2.65;;;6.40;99.10;;;;;;5011179;28;20051;-88
2023/03/28 13:41:05;;;;;;;2.53;2.42;;;6.20;97.70;;;;;;5016948;28;20792;-90
2023/03/28 13:43:57;;;;;;;2.92;2.63;;;6.20;93.40;;;;;;5016503;28;20068;-89
2023/03/28 13:46:31;;;;;;;2.58;2.38;;;6.10;93.90;;;;;;5018269;28;20513;-87
2023/03/28 13:49:11;;;;;;;3.60;3.28;;;6.20;99.90;;;;;;4998354;28;20536;-88
2023/03/28 13:51:48;;;;;;;4.03;3.72;;;5.90;93.30;;;;;;5009091;28;20051;-88
2023/03/28 13:54:16;;;;;;;4.00;3.53;;;5.90;94.50;;;;;;5009693;28;20041;-87
2023/03/28 13:56:46;;;;;;;4.72;3.58;;;6.00;92.00;;;;;;5048377;28;20048;-87
2023/03/28 13:59:23;;;;;;;2.60;2.40;;;6.10;94.00;;;;;;5025939;28;20497;-87
2023/03/28 14:01:56;;;;;;;6.53;2.35;;;6.30;93.80;;;;;;5047171;28;20048;-89
2023/03/28 14:04:33;;;;;;;4.22;2.80;;;6.60;98.30;;;;;;5035130;28;20404;-88